sensor_id;sensor_type;location;lat;lon;timestamp;temperature;humidity
3614;DHT22;1821;50.936;6.854;2022-08-24T00:00:16;22.00;99.90
3614;DHT22;1821;50.936;6.854;2022-08-24T00:00:58;22.00;99.90
3614;DHT22;1821;50.936;6.854;2022-08-24T00:01:39;22.00;99.90
3614;DHT22;1821;50.936;6.854;2022-08-24T00:02:21;22.00;99.90
3614;DHT22;1821;50.936;6.854;2022-08-24T00:03:04;21.90;99.90
3614;DHT22;1821;50.936;6.854;2022-08-24T00:03:48;21.90;99.90
3614;DHT22;1821;50.936;6.854;2022-08-24T00:04:35;21.70;99.90
3614;DHT22;1821;50.936;6.854;2022-08-24T00:05:18;21.90;99.90
3614;DHT22;1821;50.936;6.854;2022-08-24T00:06:02;21.70;99.90
3614;DHT22;1821;50.936;6.854;2022-08-24T00:06:44;21.90;99.90
3614;DHT22;1821;50.936;6.854;2022-08-24T00:07:26;21.90;99.90
3614;DHT22;1821;50.936;6.854;2022-08-24T00:08:08;22.00;99.90
3614;DHT22;1821;50.936;6.854;2022-08-24T00:08:52;21.90;99.90
3614;DHT22;1821;50.936;6.854;2022-08-24T00:09:34;22.00;99.90
3614;DHT22;1821;50.936;6.854;2022-08-24T00:10:18;21.90;99.90
3614;DHT22;1821;50.936;6.854;2022-08-24T00:11:01;22.00;99.90
3614;DHT22;1821;50.936;6.854;2022-08-24T00:11:43;21.90;99.90
3614;DHT22;1821;50.936;6.854;2022-08-24T00:12:26;21.90;99.90
3614;DHT22;1821;50.936;6.854;2022-08-24T00:13:08;21.80;99.90
3614;DHT22;1821;50.936;6.854;2022-08-24T00:13:50;21.60;99.90
3614;DHT22;1821;50.936;6.854;2022-08-24T00:14:32;21.80;99.90
3614;DHT22;1821;50.936;6.854;2022-08-24T00:15:14;21.90;99.90
3614;DHT22;1821;50.936;6.854;2022-08-24T00:15:56;21.70;99.90
3614;DHT22;1821;50.936;6.854;2022-08-24T00:16:40;21.80;99.90
3614;DHT22;1821;50.936;6.854;2022-08-24T00:17:23;21.90;99.90
3614;DHT22;1821;50.936;6.854;2022-08-24T00:18:05;21.80;99.90
3614;DHT22;1821;50.936;6.854;2022-08-24T00:18:47;21.80;99.90
3614;DHT22;1821;50.936;6.854;2022-08-24T00:19:29;22.00;99.90
3614;DHT22;1821;50.936;6.854;2022-08-24T00:20:11;21.80;99.90
3614;DHT22;1821;50.936;6.854;2022-08-24T00:20:53;21.70;99.90
3614;DHT22;1821;50.936;6.854;2022-08-24T00:21:36;21.80;99.90
3614;DHT22;1821;50.936;6.854;2022-08-24T00:22:17;21.80;99.90
3614;DHT22;1821;50.936;6.854;2022-08-24T00:22:59;21.70;99.90
3614;DHT22;1821;50.936;6.854;2022-08-24T00:23:41;21.90;99.90
3614;DHT22;1821;50.936;6.854;2022-08-24T00:24:23;21.80;99.90
3614;DHT22;1821;50.936;6.854;2022-08-24T00:25:06;21.80;99.90
3614;DHT22;1821;50.936;6.854;2022-08-24T00:25:48;21.80;99.90
3614;DHT22;1821;50.936;6.854;2022-08-24T00:26:30;21.80;99.90
3614;DHT22;1821;50.936;6.854;2022-08-24T00:27:12;21.60;99.90
3614;DHT22;1821;50.936;6.854;2022-08-24T00:27:53;21.80;99.90
3614;DHT22;1821;50.936;6.854;2022-08-24T00:28:35;21.70;99.90
3614;DHT22;1821;50.936;6.854;2022-08-24T00:29:18;21.80;99.90
3614;DHT22;1821;50.936;6.854;2022-08-24T00:30:01;21.60;99.90
3614;DHT22;1821;50.936;6.854;2022-08-24T00:30:43;21.70;99.90
3614;DHT22;1821;50.936;6.854;2022-08-24T00:31:25;21.70;99.90
3614;DHT22;1821;50.936;6.854;2022-08-24T00:32:07;21.50;99.90
3614;DHT22;1821;50.936;6.854;2022-08-24T00:32:49;21.80;99.90
3614;DHT22;1821;50.936;6.854;2022-08-24T00:33:32;21.60;99.90
3614;DHT22;1821;50.936;6.854;2022-08-24T00:34:15;21.80;99.90
3614;DHT22;1821;50.936;6.854;2022-08-24T00:34:58;21.40;99.90
3614;DHT22;1821;50.936;6.854;2022-08-24T00:35:40;21.60;99.90
3614;DHT22;1821;50.936;6.854;2022-08-24T00:36:22;21.60;99.90
3614;DHT22;1821;50.936;6.854;2022-08-24T00:37:05;21.60;99.90
3614;DHT22;1821;50.936;6.854;2022-08-24T00:37:47;21.60;99.90
3614;DHT22;1821;50.936;6.854;2022-08-24T00:38:30;21.50;99.90
3614;DHT22;1821;50.936;6.854;2022-08-24T00:39:12;21.70;99.90
3614;DHT22;1821;50.936;6.854;2022-08-24T00:39:55;21.40;99.90
3614;DHT22;1821;50.936;6.854;2022-08-24T00:40:40;21.70;99.90
3614;DHT22;1821;50.936;6.854;2022-08-24T00:41:22;21.50;99.90
3614;DHT22;1821;50.936;6.854;2022-08-24T00:42:04;21.70;99.90
3614;DHT22;1821;50.936;6.854;2022-08-24T00:42:46;21.50;99.90
3614;DHT22;1821;50.936;6.854;2022-08-24T00:43:28;21.70;99.90
3614;DHT22;1821;50.936;6.854;2022-08-24T00:44:11;21.40;99.90
3614;DHT22;1821;50.936;6.854;2022-08-24T00:44:54;21.50;99.90
3614;DHT22;1821;50.936;6.854;2022-08-24T00:47:01;21.70;99.90
3614;DHT22;1821;50.936;6.854;2022-08-24T00:47:49;21.50;99.90
3614;DHT22;1821;50.936;6.854;2022-08-24T00:48:36;21.50;99.90
3614;DHT22;1821;50.936;6.854;2022-08-24T00:49:27;21.50;99.90
3614;DHT22;1821;50.936;6.854;2022-08-24T00:50:16;21.70;99.90
3614;DHT22;1821;50.936;6.854;2022-08-24T00:51:13;21.50;99.90
3614;DHT22;1821;50.936;6.854;2022-08-24T00:52:19;21.60;99.90
3614;DHT22;1821;50.936;6.854;2022-08-24T00:53:07;21.40;99.90
3614;DHT22;1821;50.936;6.854;2022-08-24T00:53:54;21.50;99.90
3614;DHT22;1821;50.936;6.854;2022-08-24T00:54:41;21.60;99.90
3614;DHT22;1821;50.936;6.854;2022-08-24T00:55:31;21.50;99.90
3614;DHT22;1821;50.936;6.854;2022-08-24T00:56:19;21.40;99.90
3614;DHT22;1821;50.936;6.854;2022-08-24T00:57:04;21.50;99.90
3614;DHT22;1821;50.936;6.854;2022-08-24T00:57:52;21.50;99.90
3614;DHT22;1821;50.936;6.854;2022-08-24T00:59:03;21.80;99.90
3614;DHT22;1821;50.936;6.854;2022-08-24T01:00:06;21.50;99.90
3614;DHT22;1821;50.936;6.854;2022-08-24T01:00:58;21.40;99.90
3614;DHT22;1821;50.936;6.854;2022-08-24T01:01:43;21.30;99.90
3614;DHT22;1821;50.936;6.854;2022-08-24T01:02:30;21.40;99.90
3614;DHT22;1821;50.936;6.854;2022-08-24T01:03:12;21.50;99.90
3614;DHT22;1821;50.936;6.854;2022-08-24T01:03:56;21.50;99.90
3614;DHT22;1821;50.936;6.854;2022-08-24T01:04:46;21.40;99.90
3614;DHT22;1821;50.936;6.854;2022-08-24T01:05:32;21.50;99.90
3614;DHT22;1821;50.936;6.854;2022-08-24T01:06:14;21.30;99.90
3614;DHT22;1821;50.936;6.854;2022-08-24T01:06:56;21.30;99.90
3614;DHT22;1821;50.936;6.854;2022-08-24T01:07:38;21.40;99.90
3614;DHT22;1821;50.936;6.854;2022-08-24T01:08:21;21.30;99.90
3614;DHT22;1821;50.936;6.854;2022-08-24T01:09:04;21.30;99.90
3614;DHT22;1821;50.936;6.854;2022-08-24T01:09:48;21.20;99.90
3614;DHT22;1821;50.936;6.854;2022-08-24T01:10:33;21.30;99.90
3614;DHT22;1821;50.936;6.854;2022-08-24T01:11:19;21.30;99.90
3614;DHT22;1821;50.936;6.854;2022-08-24T01:12:01;21.20;99.90
3614;DHT22;1821;50.936;6.854;2022-08-24T01:12:47;21.30;99.90
3614;DHT22;1821;50.936;6.854;2022-08-24T01:13:44;21.10;99.90
3614;DHT22;1821;50.936;6.854;2022-08-24T01:14:27;21.20;99.90
3614;DHT22;1821;50.936;6.854;2022-08-24T01:15:10;21.20;99.90
3614;DHT22;1821;50.936;6.854;2022-08-24T01:15:57;21.20;99.90
3614;DHT22;1821;50.936;6.854;2022-08-24T01:16:39;21.20;99.90
3614;DHT22;1821;50.936;6.854;2022-08-24T01:17:39;21.40;99.90
3614;DHT22;1821;50.936;6.854;2022-08-24T01:18:40;21.40;99.90
3614;DHT22;1821;50.936;6.854;2022-08-24T01:19:44;21.20;99.90
3614;DHT22;1821;50.936;6.854;2022-08-24T01:20:27;21.20;99.90
3614;DHT22;1821;50.936;6.854;2022-08-24T01:23:34;21.10;99.90
3614;DHT22;1821;50.936;6.854;2022-08-24T01:24:17;21.20;99.90
3614;DHT22;1821;50.936;6.854;2022-08-24T01:25:00;21.20;99.90
3614;DHT22;1821;50.936;6.854;2022-08-24T01:25:42;20.90;99.90
3614;DHT22;1821;50.936;6.854;2022-08-24T01:26:37;21.00;99.90
3614;DHT22;1821;50.936;6.854;2022-08-24T01:27:20;21.00;99.90
3614;DHT22;1821;50.936;6.854;2022-08-24T01:28:17;21.10;99.90
3614;DHT22;1821;50.936;6.854;2022-08-24T01:29:11;21.00;99.90
3614;DHT22;1821;50.936;6.854;2022-08-24T01:29:54;21.00;99.90
3614;DHT22;1821;50.936;6.854;2022-08-24T01:30:38;21.00;99.90
3614;DHT22;1821;50.936;6.854;2022-08-24T01:31:22;21.10;99.90
3614;DHT22;1821;50.936;6.854;2022-08-24T01:32:04;21.10;99.90
3614;DHT22;1821;50.936;6.854;2022-08-24T01:32:57;21.00;99.90
3614;DHT22;1821;50.936;6.854;2022-08-24T01:33:39;20.90;99.90
3614;DHT22;1821;50.936;6.854;2022-08-24T01:34:21;21.10;99.90
3614;DHT22;1821;50.936;6.854;2022-08-24T01:35:03;20.80;99.90
3614;DHT22;1821;50.936;6.854;2022-08-24T01:35:45;21.00;99.90
3614;DHT22;1821;50.936;6.854;2022-08-24T01:36:44;21.00;99.90
3614;DHT22;1821;50.936;6.854;2022-08-24T01:37:26;21.10;99.90
3614;DHT22;1821;50.936;6.854;2022-08-24T01:38:09;21.00;99.90
3614;DHT22;1821;50.936;6.854;2022-08-24T01:38:53;20.90;99.90
3614;DHT22;1821;50.936;6.854;2022-08-24T01:39:42;20.90;99.90
3614;DHT22;1821;50.936;6.854;2022-08-24T01:40:33;20.90;99.90
3614;DHT22;1821;50.936;6.854;2022-08-24T01:41:16;21.10;99.90
3614;DHT22;1821;50.936;6.854;2022-08-24T01:41:58;21.10;99.90
3614;DHT22;1821;50.936;6.854;2022-08-24T01:42:49;20.90;99.90
3614;DHT22;1821;50.936;6.854;2022-08-24T01:43:32;20.90;99.90
3614;DHT22;1821;50.936;6.854;2022-08-24T01:44:19;21.10;99.90
3614;DHT22;1821;50.936;6.854;2022-08-24T01:45:05;21.10;99.90
3614;DHT22;1821;50.936;6.854;2022-08-24T01:45:46;21.10;99.90
3614;DHT22;1821;50.936;6.854;2022-08-24T01:46:28;21.10;99.90
3614;DHT22;1821;50.936;6.854;2022-08-24T01:47:12;20.90;99.90
3614;DHT22;1821;50.936;6.854;2022-08-24T01:47:54;20.90;99.90
3614;DHT22;1821;50.936;6.854;2022-08-24T01:48:35;20.80;99.90
3614;DHT22;1821;50.936;6.854;2022-08-24T01:49:18;20.70;99.90
3614;DHT22;1821;50.936;6.854;2022-08-24T01:50:00;20.80;99.90
3614;DHT22;1821;50.936;6.854;2022-08-24T01:50:42;20.80;99.90
3614;DHT22;1821;50.936;6.854;2022-08-24T01:51:29;20.90;99.90
3614;DHT22;1821;50.936;6.854;2022-08-24T01:52:16;21.00;99.90
3614;DHT22;1821;50.936;6.854;2022-08-24T01:53:01;20.80;99.90
3614;DHT22;1821;50.936;6.854;2022-08-24T01:53:54;20.80;99.90
3614;DHT22;1821;50.936;6.854;2022-08-24T01:54:36;20.90;99.90
3614;DHT22;1821;50.936;6.854;2022-08-24T01:55:24;20.90;99.90
3614;DHT22;1821;50.936;6.854;2022-08-24T01:56:06;21.10;99.90
3614;DHT22;1821;50.936;6.854;2022-08-24T01:56:47;21.00;99.90
3614;DHT22;1821;50.936;6.854;2022-08-24T01:57:29;20.90;99.90
3614;DHT22;1821;50.936;6.854;2022-08-24T01:58:11;21.00;99.90
3614;DHT22;1821;50.936;6.854;2022-08-24T01:58:53;20.80;99.90
3614;DHT22;1821;50.936;6.854;2022-08-24T01:59:35;20.90;99.90
3614;DHT22;1821;50.936;6.854;2022-08-24T02:00:17;20.90;99.90
3614;DHT22;1821;50.936;6.854;2022-08-24T02:00:59;20.80;99.90
3614;DHT22;1821;50.936;6.854;2022-08-24T02:01:49;20.90;99.90
3614;DHT22;1821;50.936;6.854;2022-08-24T02:02:32;21.00;99.90
3614;DHT22;1821;50.936;6.854;2022-08-24T02:03:14;20.90;99.90
3614;DHT22;1821;50.936;6.854;2022-08-24T02:03:59;20.80;99.90
3614;DHT22;1821;50.936;6.854;2022-08-24T02:04:42;20.90;99.90
3614;DHT22;1821;50.936;6.854;2022-08-24T02:05:25;20.90;99.90
3614;DHT22;1821;50.936;6.854;2022-08-24T02:06:06;20.90;99.90
3614;DHT22;1821;50.936;6.854;2022-08-24T02:06:48;20.80;99.90
3614;DHT22;1821;50.936;6.854;2022-08-24T02:07:30;20.70;99.90
3614;DHT22;1821;50.936;6.854;2022-08-24T02:08:13;20.80;99.90
3614;DHT22;1821;50.936;6.854;2022-08-24T02:08:55;20.80;99.90
3614;DHT22;1821;50.936;6.854;2022-08-24T02:09:37;20.90;99.90
3614;DHT22;1821;50.936;6.854;2022-08-24T02:10:20;20.70;99.90
3614;DHT22;1821;50.936;6.854;2022-08-24T02:11:05;20.80;99.90
3614;DHT22;1821;50.936;6.854;2022-08-24T02:11:47;20.90;99.90
3614;DHT22;1821;50.936;6.854;2022-08-24T02:12:29;20.60;99.90
3614;DHT22;1821;50.936;6.854;2022-08-24T02:13:11;20.90;99.90
3614;DHT22;1821;50.936;6.854;2022-08-24T02:13:55;20.80;99.90
3614;DHT22;1821;50.936;6.854;2022-08-24T02:14:37;20.70;99.90
3614;DHT22;1821;50.936;6.854;2022-08-24T02:15:19;20.70;99.90
3614;DHT22;1821;50.936;6.854;2022-08-24T02:16:01;20.60;99.90
3614;DHT22;1821;50.936;6.854;2022-08-24T02:16:43;20.70;99.90
3614;DHT22;1821;50.936;6.854;2022-08-24T02:17:24;20.80;99.90
3614;DHT22;1821;50.936;6.854;2022-08-24T02:18:08;20.60;99.90
3614;DHT22;1821;50.936;6.854;2022-08-24T02:18:57;20.80;99.90
3614;DHT22;1821;50.936;6.854;2022-08-24T02:19:39;20.60;99.90
3614;DHT22;1821;50.936;6.854;2022-08-24T02:20:20;20.40;99.90
3614;DHT22;1821;50.936;6.854;2022-08-24T02:21:02;20.50;99.90
3614;DHT22;1821;50.936;6.854;2022-08-24T02:21:44;20.40;99.90
3614;DHT22;1821;50.936;6.854;2022-08-24T02:22:27;20.50;99.90
3614;DHT22;1821;50.936;6.854;2022-08-24T02:23:08;20.60;99.90
3614;DHT22;1821;50.936;6.854;2022-08-24T02:23:51;20.60;99.90
3614;DHT22;1821;50.936;6.854;2022-08-24T02:24:33;20.50;99.90
3614;DHT22;1821;50.936;6.854;2022-08-24T02:25:15;20.60;99.90
3614;DHT22;1821;50.936;6.854;2022-08-24T02:25:57;20.60;99.90
3614;DHT22;1821;50.936;6.854;2022-08-24T02:26:39;20.50;99.90
3614;DHT22;1821;50.936;6.854;2022-08-24T02:27:21;20.50;99.90
3614;DHT22;1821;50.936;6.854;2022-08-24T02:28:03;20.60;99.90
3614;DHT22;1821;50.936;6.854;2022-08-24T02:28:45;20.60;99.90
3614;DHT22;1821;50.936;6.854;2022-08-24T02:29:27;20.50;99.90
3614;DHT22;1821;50.936;6.854;2022-08-24T02:30:09;20.80;99.90
3614;DHT22;1821;50.936;6.854;2022-08-24T02:30:52;20.50;99.90
3614;DHT22;1821;50.936;6.854;2022-08-24T02:31:34;20.60;99.90
3614;DHT22;1821;50.936;6.854;2022-08-24T02:32:17;20.50;99.90
3614;DHT22;1821;50.936;6.854;2022-08-24T02:32:59;20.70;99.90
3614;DHT22;1821;50.936;6.854;2022-08-24T02:33:41;20.60;99.90
3614;DHT22;1821;50.936;6.854;2022-08-24T02:34:23;20.50;99.90
3614;DHT22;1821;50.936;6.854;2022-08-24T02:35:05;20.40;99.90
3614;DHT22;1821;50.936;6.854;2022-08-24T02:35:47;20.70;99.90
3614;DHT22;1821;50.936;6.854;2022-08-24T02:36:29;20.60;99.90
3614;DHT22;1821;50.936;6.854;2022-08-24T02:37:11;20.60;99.90
3614;DHT22;1821;50.936;6.854;2022-08-24T02:37:53;20.50;99.90
3614;DHT22;1821;50.936;6.854;2022-08-24T02:38:35;20.50;99.90
3614;DHT22;1821;50.936;6.854;2022-08-24T02:39:17;20.50;99.90
3614;DHT22;1821;50.936;6.854;2022-08-24T02:39:58;20.50;99.90
3614;DHT22;1821;50.936;6.854;2022-08-24T02:40:41;20.60;99.90
3614;DHT22;1821;50.936;6.854;2022-08-24T02:41:22;20.60;99.90
3614;DHT22;1821;50.936;6.854;2022-08-24T02:42:07;20.60;99.90
3614;DHT22;1821;50.936;6.854;2022-08-24T02:42:49;20.40;99.90
3614;DHT22;1821;50.936;6.854;2022-08-24T02:43:31;20.40;99.90
3614;DHT22;1821;50.936;6.854;2022-08-24T02:44:19;20.20;99.90
3614;DHT22;1821;50.936;6.854;2022-08-24T02:45:02;20.60;99.90
3614;DHT22;1821;50.936;6.854;2022-08-24T02:45:46;20.40;99.90
3614;DHT22;1821;50.936;6.854;2022-08-24T02:46:31;20.30;99.90
3614;DHT22;1821;50.936;6.854;2022-08-24T02:47:12;20.40;99.90
3614;DHT22;1821;50.936;6.854;2022-08-24T02:47:54;20.20;99.90
3614;DHT22;1821;50.936;6.854;2022-08-24T02:48:36;20.30;99.90
3614;DHT22;1821;50.936;6.854;2022-08-24T02:49:18;20.20;99.90
3614;DHT22;1821;50.936;6.854;2022-08-24T02:50:05;20.30;99.90
3614;DHT22;1821;50.936;6.854;2022-08-24T02:50:49;20.30;99.90
3614;DHT22;1821;50.936;6.854;2022-08-24T02:51:32;20.40;99.90
3614;DHT22;1821;50.936;6.854;2022-08-24T02:52:25;20.30;99.90
3614;DHT22;1821;50.936;6.854;2022-08-24T02:53:07;20.50;99.90
3614;DHT22;1821;50.936;6.854;2022-08-24T02:53:49;20.30;99.90
3614;DHT22;1821;50.936;6.854;2022-08-24T02:54:31;20.40;99.90
3614;DHT22;1821;50.936;6.854;2022-08-24T02:55:15;20.40;99.90
3614;DHT22;1821;50.936;6.854;2022-08-24T02:56:01;20.40;99.90
3614;DHT22;1821;50.936;6.854;2022-08-24T02:56:43;20.30;99.90
3614;DHT22;1821;50.936;6.854;2022-08-24T02:57:25;20.20;99.90
3614;DHT22;1821;50.936;6.854;2022-08-24T02:58:08;20.10;99.90
3614;DHT22;1821;50.936;6.854;2022-08-24T02:58:50;20.10;99.90
3614;DHT22;1821;50.936;6.854;2022-08-24T02:59:34;20.30;99.90
3614;DHT22;1821;50.936;6.854;2022-08-24T03:00:19;20.30;99.90
3614;DHT22;1821;50.936;6.854;2022-08-24T03:01:01;20.30;99.90
3614;DHT22;1821;50.936;6.854;2022-08-24T03:01:54;20.30;99.90
3614;DHT22;1821;50.936;6.854;2022-08-24T03:02:36;20.30;99.90
3614;DHT22;1821;50.936;6.854;2022-08-24T03:03:18;20.20;99.90
3614;DHT22;1821;50.936;6.854;2022-08-24T03:04:00;20.30;99.90
3614;DHT22;1821;50.936;6.854;2022-08-24T03:04:42;20.30;99.90
3614;DHT22;1821;50.936;6.854;2022-08-24T03:05:29;20.30;99.90
3614;DHT22;1821;50.936;6.854;2022-08-24T03:06:12;20.10;99.90
3614;DHT22;1821;50.936;6.854;2022-08-24T03:06:54;20.40;99.90
3614;DHT22;1821;50.936;6.854;2022-08-24T03:07:36;20.30;99.90
3614;DHT22;1821;50.936;6.854;2022-08-24T03:08:18;20.20;99.90
3614;DHT22;1821;50.936;6.854;2022-08-24T03:09:00;20.30;99.90
3614;DHT22;1821;50.936;6.854;2022-08-24T03:09:42;20.20;99.90
3614;DHT22;1821;50.936;6.854;2022-08-24T03:10:23;20.40;99.90
3614;DHT22;1821;50.936;6.854;2022-08-24T03:11:06;20.30;99.90
3614;DHT22;1821;50.936;6.854;2022-08-24T03:11:48;20.20;99.90
3614;DHT22;1821;50.936;6.854;2022-08-24T03:12:30;20.30;99.90
3614;DHT22;1821;50.936;6.854;2022-08-24T03:13:12;20.30;99.90
3614;DHT22;1821;50.936;6.854;2022-08-24T03:13:55;20.30;99.90
3614;DHT22;1821;50.936;6.854;2022-08-24T03:14:38;20.60;99.90
3614;DHT22;1821;50.936;6.854;2022-08-24T03:15:21;20.20;99.90
3614;DHT22;1821;50.936;6.854;2022-08-24T03:16:04;20.30;99.90
3614;DHT22;1821;50.936;6.854;2022-08-24T03:16:46;20.20;99.90
3614;DHT22;1821;50.936;6.854;2022-08-24T03:17:28;20.20;99.90
3614;DHT22;1821;50.936;6.854;2022-08-24T03:18:14;20.10;99.90
3614;DHT22;1821;50.936;6.854;2022-08-24T03:18:56;20.30;99.90
3614;DHT22;1821;50.936;6.854;2022-08-24T03:19:38;20.20;99.90
3614;DHT22;1821;50.936;6.854;2022-08-24T03:20:21;20.20;99.90
3614;DHT22;1821;50.936;6.854;2022-08-24T03:21:03;20.00;99.90
3614;DHT22;1821;50.936;6.854;2022-08-24T03:21:45;20.10;99.90
3614;DHT22;1821;50.936;6.854;2022-08-24T03:22:27;20.10;99.90
3614;DHT22;1821;50.936;6.854;2022-08-24T03:23:08;20.10;99.90
3614;DHT22;1821;50.936;6.854;2022-08-24T03:23:50;20.30;99.90
3614;DHT22;1821;50.936;6.854;2022-08-24T03:24:32;20.20;99.90
3614;DHT22;1821;50.936;6.854;2022-08-24T03:25:16;20.10;99.90
3614;DHT22;1821;50.936;6.854;2022-08-24T03:25:58;20.20;99.90
3614;DHT22;1821;50.936;6.854;2022-08-24T03:26:40;20.10;99.90
3614;DHT22;1821;50.936;6.854;2022-08-24T03:27:24;20.00;99.90
3614;DHT22;1821;50.936;6.854;2022-08-24T03:28:07;20.20;99.90
3614;DHT22;1821;50.936;6.854;2022-08-24T03:28:51;20.00;99.90
3614;DHT22;1821;50.936;6.854;2022-08-24T03:29:33;20.20;99.90
3614;DHT22;1821;50.936;6.854;2022-08-24T03:30:17;19.90;99.90
3614;DHT22;1821;50.936;6.854;2022-08-24T03:30:59;20.10;99.90
3614;DHT22;1821;50.936;6.854;2022-08-24T03:31:41;20.20;99.90
3614;DHT22;1821;50.936;6.854;2022-08-24T03:32:23;20.00;99.90
3614;DHT22;1821;50.936;6.854;2022-08-24T03:33:05;20.00;99.90
3614;DHT22;1821;50.936;6.854;2022-08-24T03:33:48;20.20;99.90
3614;DHT22;1821;50.936;6.854;2022-08-24T03:34:30;20.10;99.90
3614;DHT22;1821;50.936;6.854;2022-08-24T03:35:13;20.30;99.90
3614;DHT22;1821;50.936;6.854;2022-08-24T03:35:55;20.10;99.90
3614;DHT22;1821;50.936;6.854;2022-08-24T03:36:37;20.10;99.90
3614;DHT22;1821;50.936;6.854;2022-08-24T03:37:19;20.00;99.90
3614;DHT22;1821;50.936;6.854;2022-08-24T03:38:01;19.90;99.90
3614;DHT22;1821;50.936;6.854;2022-08-24T03:38:43;19.90;99.90
3614;DHT22;1821;50.936;6.854;2022-08-24T03:39:25;19.90;99.90
3614;DHT22;1821;50.936;6.854;2022-08-24T03:40:09;19.90;99.90
3614;DHT22;1821;50.936;6.854;2022-08-24T03:41:04;19.90;99.90
3614;DHT22;1821;50.936;6.854;2022-08-24T03:41:46;20.00;99.90
3614;DHT22;1821;50.936;6.854;2022-08-24T03:42:28;20.00;99.90
3614;DHT22;1821;50.936;6.854;2022-08-24T03:43:10;19.90;99.90
3614;DHT22;1821;50.936;6.854;2022-08-24T03:44:12;19.90;99.90
3614;DHT22;1821;50.936;6.854;2022-08-24T03:44:54;19.80;99.90
3614;DHT22;1821;50.936;6.854;2022-08-24T03:45:35;19.90;99.90
3614;DHT22;1821;50.936;6.854;2022-08-24T03:46:26;19.90;99.90
3614;DHT22;1821;50.936;6.854;2022-08-24T03:47:09;19.80;99.90
3614;DHT22;1821;50.936;6.854;2022-08-24T03:47:51;19.90;99.90
3614;DHT22;1821;50.936;6.854;2022-08-24T03:48:34;19.90;99.90
3614;DHT22;1821;50.936;6.854;2022-08-24T03:49:16;20.00;99.90
3614;DHT22;1821;50.936;6.854;2022-08-24T03:49:58;20.00;99.90
3614;DHT22;1821;50.936;6.854;2022-08-24T03:50:43;19.90;99.90
3614;DHT22;1821;50.936;6.854;2022-08-24T03:51:27;19.90;99.90
3614;DHT22;1821;50.936;6.854;2022-08-24T03:52:09;19.80;99.90
3614;DHT22;1821;50.936;6.854;2022-08-24T03:52:51;19.80;99.90
3614;DHT22;1821;50.936;6.854;2022-08-24T03:53:33;19.80;99.90
3614;DHT22;1821;50.936;6.854;2022-08-24T03:54:18;19.80;99.90
3614;DHT22;1821;50.936;6.854;2022-08-24T03:55:02;19.80;99.90
3614;DHT22;1821;50.936;6.854;2022-08-24T03:55:44;19.90;99.90
3614;DHT22;1821;50.936;6.854;2022-08-24T03:56:26;19.80;99.90
3614;DHT22;1821;50.936;6.854;2022-08-24T03:57:08;19.80;99.90
3614;DHT22;1821;50.936;6.854;2022-08-24T03:57:50;19.70;99.90
3614;DHT22;1821;50.936;6.854;2022-08-24T03:58:32;19.90;99.90
3614;DHT22;1821;50.936;6.854;2022-08-24T03:59:13;19.90;99.90
3614;DHT22;1821;50.936;6.854;2022-08-24T04:00:03;19.80;99.90
3614;DHT22;1821;50.936;6.854;2022-08-24T04:00:44;19.80;99.90
3614;DHT22;1821;50.936;6.854;2022-08-24T04:01:27;19.80;99.90
3614;DHT22;1821;50.936;6.854;2022-08-24T04:02:09;19.90;99.90
3614;DHT22;1821;50.936;6.854;2022-08-24T04:02:55;19.80;99.90
3614;DHT22;1821;50.936;6.854;2022-08-24T04:03:41;19.80;99.90
3614;DHT22;1821;50.936;6.854;2022-08-24T04:04:24;19.80;99.90
3614;DHT22;1821;50.936;6.854;2022-08-24T04:05:06;19.80;99.90
3614;DHT22;1821;50.936;6.854;2022-08-24T04:05:48;19.80;99.90
3614;DHT22;1821;50.936;6.854;2022-08-24T04:06:30;19.80;99.90
3614;DHT22;1821;50.936;6.854;2022-08-24T04:07:12;19.80;99.90
3614;DHT22;1821;50.936;6.854;2022-08-24T04:07:53;19.90;99.90
3614;DHT22;1821;50.936;6.854;2022-08-24T04:08:36;19.80;99.90
3614;DHT22;1821;50.936;6.854;2022-08-24T04:09:18;20.00;99.90
3614;DHT22;1821;50.936;6.854;2022-08-24T04:10:00;19.80;99.90
3614;DHT22;1821;50.936;6.854;2022-08-24T04:10:45;19.70;99.90
3614;DHT22;1821;50.936;6.854;2022-08-24T04:11:28;19.80;99.90
3614;DHT22;1821;50.936;6.854;2022-08-24T04:12:10;19.90;99.90
3614;DHT22;1821;50.936;6.854;2022-08-24T04:12:52;19.80;99.90
3614;DHT22;1821;50.936;6.854;2022-08-24T04:13:35;19.80;99.90
3614;DHT22;1821;50.936;6.854;2022-08-24T04:14:17;19.70;99.90
3614;DHT22;1821;50.936;6.854;2022-08-24T04:15:08;19.70;99.90
3614;DHT22;1821;50.936;6.854;2022-08-24T04:15:50;19.70;99.90
3614;DHT22;1821;50.936;6.854;2022-08-24T04:16:33;19.90;99.90
3614;DHT22;1821;50.936;6.854;2022-08-24T04:17:15;19.80;99.90
3614;DHT22;1821;50.936;6.854;2022-08-24T04:17:57;19.90;99.90
3614;DHT22;1821;50.936;6.854;2022-08-24T04:18:40;19.80;99.90
3614;DHT22;1821;50.936;6.854;2022-08-24T04:19:22;20.00;99.90
3614;DHT22;1821;50.936;6.854;2022-08-24T04:20:04;19.70;99.90
3614;DHT22;1821;50.936;6.854;2022-08-24T04:20:46;19.70;99.90
3614;DHT22;1821;50.936;6.854;2022-08-24T04:21:31;19.70;99.90
3614;DHT22;1821;50.936;6.854;2022-08-24T04:22:16;19.70;99.90
3614;DHT22;1821;50.936;6.854;2022-08-24T04:22:57;19.80;99.90
3614;DHT22;1821;50.936;6.854;2022-08-24T04:23:39;19.60;99.90
3614;DHT22;1821;50.936;6.854;2022-08-24T04:24:28;19.80;99.90
3614;DHT22;1821;50.936;6.854;2022-08-24T04:25:10;19.80;99.90
3614;DHT22;1821;50.936;6.854;2022-08-24T04:25:52;19.60;99.90
3614;DHT22;1821;50.936;6.854;2022-08-24T04:26:35;19.70;99.90
3614;DHT22;1821;50.936;6.854;2022-08-24T04:27:26;19.50;99.90
3614;DHT22;1821;50.936;6.854;2022-08-24T04:28:08;19.80;99.90
3614;DHT22;1821;50.936;6.854;2022-08-24T04:28:50;19.60;99.90
3614;DHT22;1821;50.936;6.854;2022-08-24T04:29:32;19.60;99.90
3614;DHT22;1821;50.936;6.854;2022-08-24T04:30:14;19.60;99.90
3614;DHT22;1821;50.936;6.854;2022-08-24T04:30:56;19.50;99.90
3614;DHT22;1821;50.936;6.854;2022-08-24T04:31:40;19.60;99.90
3614;DHT22;1821;50.936;6.854;2022-08-24T04:32:23;19.50;99.90
3614;DHT22;1821;50.936;6.854;2022-08-24T04:33:05;19.50;99.90
3614;DHT22;1821;50.936;6.854;2022-08-24T04:33:47;19.60;99.90
3614;DHT22;1821;50.936;6.854;2022-08-24T04:34:34;19.30;99.90
3614;DHT22;1821;50.936;6.854;2022-08-24T04:35:16;19.60;99.90
3614;DHT22;1821;50.936;6.854;2022-08-24T04:35:58;19.50;99.90
3614;DHT22;1821;50.936;6.854;2022-08-24T04:36:41;19.60;99.90
3614;DHT22;1821;50.936;6.854;2022-08-24T04:37:24;19.70;99.90
3614;DHT22;1821;50.936;6.854;2022-08-24T04:38:09;19.50;99.90
3614;DHT22;1821;50.936;6.854;2022-08-24T04:38:51;19.60;99.90
3614;DHT22;1821;50.936;6.854;2022-08-24T04:39:33;19.60;99.90
3614;DHT22;1821;50.936;6.854;2022-08-24T04:40:15;19.60;99.90
3614;DHT22;1821;50.936;6.854;2022-08-24T04:41:06;19.60;99.90
3614;DHT22;1821;50.936;6.854;2022-08-24T04:41:54;19.60;99.90
3614;DHT22;1821;50.936;6.854;2022-08-24T04:42:43;19.60;99.90
3614;DHT22;1821;50.936;6.854;2022-08-24T04:43:25;19.60;99.90
3614;DHT22;1821;50.936;6.854;2022-08-24T04:44:07;19.60;99.90
3614;DHT22;1821;50.936;6.854;2022-08-24T04:44:49;19.60;99.90
3614;DHT22;1821;50.936;6.854;2022-08-24T04:45:31;19.60;99.90
3614;DHT22;1821;50.936;6.854;2022-08-24T04:46:16;19.60;99.90
3614;DHT22;1821;50.936;6.854;2022-08-24T04:46:58;19.60;99.90
3614;DHT22;1821;50.936;6.854;2022-08-24T04:47:43;19.60;99.90
3614;DHT22;1821;50.936;6.854;2022-08-24T04:48:25;19.50;99.90
3614;DHT22;1821;50.936;6.854;2022-08-24T04:49:07;19.50;99.90
3614;DHT22;1821;50.936;6.854;2022-08-24T04:49:48;19.60;99.90